sensor_id;sensor_type;location;lat;lon;timestamp;P1;durP1;ratioP1;P2;durP2;ratioP2
71413;SDS011;59226;53.212;5.728;2022-09-24T00:01:35;7.13;;;3.43;;
71413;SDS011;59226;53.212;5.728;2022-09-24T00:04:03;8.20;;;4.03;;
71413;SDS011;59226;53.212;5.728;2022-09-24T00:06:29;6.40;;;4.35;;
71413;SDS011;59226;53.212;5.728;2022-09-24T00:08:55;11.23;;;4.90;;
71413;SDS011;59226;53.212;5.728;2022-09-24T00:11:22;10.25;;;4.25;;
71413;SDS011;59226;53.212;5.728;2022-09-24T00:13:48;8.30;;;4.07;;
71413;SDS011;59226;53.212;5.728;2022-09-24T00:16:14;7.35;;;4.18;;
71413;SDS011;59226;53.212;5.728;2022-09-24T00:18:39;11.70;;;5.30;;
71413;SDS011;59226;53.212;5.728;2022-09-24T00:23:36;8.57;;;4.20;;
71413;SDS011;59226;53.212;5.728;2022-09-24T00:26:01;6.90;;;3.97;;
71413;SDS011;59226;53.212;5.728;2022-09-24T00:28:48;10.27;;;5.53;;
71413;SDS011;59226;53.212;5.728;2022-09-24T00:31:13;10.13;;;4.15;;
71413;SDS011;59226;53.212;5.728;2022-09-24T00:33:38;6.00;;;2.97;;
71413;SDS011;59226;53.212;5.728;2022-09-24T00:36:04;6.00;;;3.43;;
71413;SDS011;59226;53.212;5.728;2022-09-24T00:38:32;8.32;;;3.90;;
71413;SDS011;59226;53.212;5.728;2022-09-24T00:40:58;6.87;;;3.87;;
71413;SDS011;59226;53.212;5.728;2022-09-24T00:43:25;7.35;;;3.90;;
71413;SDS011;59226;53.212;5.728;2022-09-24T00:45:51;8.65;;;3.92;;
71413;SDS011;59226;53.212;5.728;2022-09-24T00:48:17;7.00;;;3.72;;
71413;SDS011;59226;53.212;5.728;2022-09-24T00:50:43;7.47;;;3.03;;
71413;SDS011;59226;53.212;5.728;2022-09-24T00:55:34;8.33;;;4.43;;
71413;SDS011;59226;53.212;5.728;2022-09-24T00:58:01;6.63;;;2.53;;
71413;SDS011;59226;53.212;5.728;2022-09-24T01:00:27;8.40;;;3.80;;
71413;SDS011;59226;53.212;5.728;2022-09-24T01:02:54;8.07;;;3.90;;
71413;SDS011;59226;53.212;5.728;2022-09-24T01:05:20;7.82;;;3.70;;
71413;SDS011;59226;53.212;5.728;2022-09-24T01:07:46;8.40;;;3.92;;
71413;SDS011;59226;53.212;5.728;2022-09-24T01:10:15;5.28;;;2.42;;
71413;SDS011;59226;53.212;5.728;2022-09-24T01:13:03;4.25;;;1.73;;
71413;SDS011;59226;53.212;5.728;2022-09-24T01:15:32;4.97;;;1.90;;
71413;SDS011;59226;53.212;5.728;2022-09-24T01:18:06;3.13;;;1.20;;
71413;SDS011;59226;53.212;5.728;2022-09-24T01:20:39;1.67;;;0.60;;
71413;SDS011;59226;53.212;5.728;2022-09-24T01:28:20;4.90;;;1.03;;
71413;SDS011;59226;53.212;5.728;2022-09-24T01:30:49;0.30;;;0.20;;
71413;SDS011;59226;53.212;5.728;2022-09-24T01:33:18;1.27;;;0.57;;
71413;SDS011;59226;53.212;5.728;2022-09-24T01:35:46;0.28;;;0.22;;
71413;SDS011;59226;53.212;5.728;2022-09-24T01:38:16;0.30;;;0.20;;
71413;SDS011;59226;53.212;5.728;2022-09-24T01:40:43;0.30;;;0.15;;
71413;SDS011;59226;53.212;5.728;2022-09-24T01:43:10;0.67;;;0.40;;
71413;SDS011;59226;53.212;5.728;2022-09-24T01:45:36;1.65;;;1.02;;
71413;SDS011;59226;53.212;5.728;2022-09-24T01:48:03;1.33;;;0.60;;
71413;SDS011;59226;53.212;5.728;2022-09-24T01:50:28;1.17;;;0.45;;
71413;SDS011;59226;53.212;5.728;2022-09-24T01:52:57;1.02;;;0.85;;
71413;SDS011;59226;53.212;5.728;2022-09-24T01:55:24;1.33;;;0.40;;
71413;SDS011;59226;53.212;5.728;2022-09-24T01:57:52;0.45;;;0.30;;
71413;SDS011;59226;53.212;5.728;2022-09-24T02:00:19;1.52;;;0.63;;
71413;SDS011;59226;53.212;5.728;2022-09-24T02:07:44;0.20;;;0.10;;
71413;SDS011;59226;53.212;5.728;2022-09-24T02:10:14;0.90;;;0.60;;
71413;SDS011;59226;53.212;5.728;2022-09-24T02:12:40;0.20;;;0.20;;
71413;SDS011;59226;53.212;5.728;2022-09-24T02:15:10;2.20;;;0.40;;
71413;SDS011;59226;53.212;5.728;2022-09-24T02:17:38;0.73;;;0.30;;
71413;SDS011;59226;53.212;5.728;2022-09-24T02:20:07;2.20;;;0.55;;
71413;SDS011;59226;53.212;5.728;2022-09-24T02:22:33;4.63;;;0.80;;
71413;SDS011;59226;53.212;5.728;2022-09-24T02:24:59;0.50;;;0.38;;
71413;SDS011;59226;53.212;5.728;2022-09-24T02:27:26;0.80;;;0.43;;
71413;SDS011;59226;53.212;5.728;2022-09-24T02:29:55;1.85;;;0.77;;
71413;SDS011;59226;53.212;5.728;2022-09-24T02:32:20;1.60;;;0.45;;
71413;SDS011;59226;53.212;5.728;2022-09-24T02:34:48;0.40;;;0.28;;
71413;SDS011;59226;53.212;5.728;2022-09-24T02:37:14;0.90;;;0.50;;
71413;SDS011;59226;53.212;5.728;2022-09-24T02:39:40;0.53;;;0.30;;
71413;SDS011;59226;53.212;5.728;2022-09-24T02:42:06;1.17;;;0.40;;
71413;SDS011;59226;53.212;5.728;2022-09-24T02:44:33;0.37;;;0.20;;
71413;SDS011;59226;53.212;5.728;2022-09-24T02:47:00;0.40;;;0.20;;
71413;SDS011;59226;53.212;5.728;2022-09-24T02:49:25;4.80;;;0.57;;
71413;SDS011;59226;53.212;5.728;2022-09-24T02:51:50;0.20;;;0.20;;
71413;SDS011;59226;53.212;5.728;2022-09-24T02:54:16;0.67;;;0.30;;
71413;SDS011;59226;53.212;5.728;2022-09-24T02:56:41;0.40;;;0.37;;
71413;SDS011;59226;53.212;5.728;2022-09-24T02:59:06;0.63;;;0.33;;
71413;SDS011;59226;53.212;5.728;2022-09-24T03:01:32;0.70;;;0.33;;
71413;SDS011;59226;53.212;5.728;2022-09-24T03:03:57;1.10;;;0.30;;
71413;SDS011;59226;53.212;5.728;2022-09-24T03:06:23;0.45;;;0.38;;
71413;SDS011;59226;53.212;5.728;2022-09-24T03:08:51;0.40;;;0.20;;
71413;SDS011;59226;53.212;5.728;2022-09-24T03:11:17;0.73;;;0.43;;
71413;SDS011;59226;53.212;5.728;2022-09-24T03:13:42;0.97;;;0.50;;
71413;SDS011;59226;53.212;5.728;2022-09-24T03:16:08;0.23;;;0.23;;
71413;SDS011;59226;53.212;5.728;2022-09-24T03:18:33;0.40;;;0.30;;
71413;SDS011;59226;53.212;5.728;2022-09-24T03:20:59;0.80;;;0.50;;
71413;SDS011;59226;53.212;5.728;2022-09-24T03:23:25;5.13;;;0.30;;
71413;SDS011;59226;53.212;5.728;2022-09-24T03:25:50;5.72;;;0.60;;
71413;SDS011;59226;53.212;5.728;2022-09-24T03:28:15;0.77;;;0.37;;
71413;SDS011;59226;53.212;5.728;2022-09-24T03:30:41;0.43;;;0.20;;
71413;SDS011;59226;53.212;5.728;2022-09-24T03:36:07;2.23;;;0.67;;
71413;SDS011;59226;53.212;5.728;2022-09-24T03:38:33;0.40;;;0.35;;
71413;SDS011;59226;53.212;5.728;2022-09-24T03:40:59;5.63;;;0.60;;
71413;SDS011;59226;53.212;5.728;2022-09-24T03:43:25;0.40;;;0.20;;
71413;SDS011;59226;53.212;5.728;2022-09-24T03:45:50;0.20;;;0.20;;
71413;SDS011;59226;53.212;5.728;2022-09-24T03:48:16;1.33;;;0.43;;
71413;SDS011;59226;53.212;5.728;2022-09-24T03:50:42;1.80;;;0.52;;
71413;SDS011;59226;53.212;5.728;2022-09-24T03:53:07;0.20;;;0.10;;
71413;SDS011;59226;53.212;5.728;2022-09-24T03:55:32;0.50;;;0.27;;
71413;SDS011;59226;53.212;5.728;2022-09-24T03:57:58;0.30;;;0.30;;
71413;SDS011;59226;53.212;5.728;2022-09-24T04:00:23;3.53;;;0.50;;
71413;SDS011;59226;53.212;5.728;2022-09-24T04:02:48;0.20;;;0.20;;
71413;SDS011;59226;53.212;5.728;2022-09-24T04:05:14;0.15;;;0.15;;
71413;SDS011;59226;53.212;5.728;2022-09-24T04:07:41;0.50;;;0.40;;
71413;SDS011;59226;53.212;5.728;2022-09-24T04:10:06;1.23;;;0.55;;
71413;SDS011;59226;53.212;5.728;2022-09-24T04:12:32;2.20;;;0.73;;
71413;SDS011;59226;53.212;5.728;2022-09-24T04:14:58;0.43;;;0.23;;
71413;SDS011;59226;53.212;5.728;2022-09-24T04:17:25;0.65;;;0.40;;
71413;SDS011;59226;53.212;5.728;2022-09-24T04:19:53;0.10;;;0.10;;
71413;SDS011;59226;53.212;5.728;2022-09-24T04:22:18;3.08;;;1.10;;
71413;SDS011;59226;53.212;5.728;2022-09-24T04:24:44;0.57;;;0.40;;
71413;SDS011;59226;53.212;5.728;2022-09-24T04:27:10;0.20;;;0.20;;
71413;SDS011;59226;53.212;5.728;2022-09-24T04:29:35;0.50;;;0.30;;
71413;SDS011;59226;53.212;5.728;2022-09-24T04:32:00;1.10;;;0.20;;
71413;SDS011;59226;53.212;5.728;2022-09-24T04:34:27;0.47;;;0.30;;
71413;SDS011;59226;53.212;5.728;2022-09-24T04:36:52;0.30;;;0.30;;
71413;SDS011;59226;53.212;5.728;2022-09-24T04:39:17;0.20;;;0.17;;
71413;SDS011;59226;53.212;5.728;2022-09-24T04:41:42;0.20;;;0.20;;
71413;SDS011;59226;53.212;5.728;2022-09-24T04:44:08;1.23;;;0.30;;
71413;SDS011;59226;53.212;5.728;2022-09-24T04:46:34;2.30;;;0.50;;
71413;SDS011;59226;53.212;5.728;2022-09-24T04:48:59;0.40;;;0.27;;
71413;SDS011;59226;53.212;5.728;2022-09-24T04:51:24;1.73;;;0.57;;
71413;SDS011;59226;53.212;5.728;2022-09-24T04:53:49;0.27;;;0.20;;
71413;SDS011;59226;53.212;5.728;2022-09-24T04:56:15;0.73;;;0.33;;
71413;SDS011;59226;53.212;5.728;2022-09-24T04:58:40;3.20;;;0.40;;
71413;SDS011;59226;53.212;5.728;2022-09-24T05:01:05;0.10;;;0.10;;
71413;SDS011;59226;53.212;5.728;2022-09-24T05:03:31;0.20;;;0.20;;
71413;SDS011;59226;53.212;5.728;2022-09-24T05:05:57;0.63;;;0.30;;
71413;SDS011;59226;53.212;5.728;2022-09-24T05:08:22;0.10;;;0.10;;
71413;SDS011;59226;53.212;5.728;2022-09-24T05:10:47;0.30;;;0.23;;
71413;SDS011;59226;53.212;5.728;2022-09-24T05:13:12;1.60;;;0.77;;
71413;SDS011;59226;53.212;5.728;2022-09-24T05:15:38;0.17;;;0.17;;
71413;SDS011;59226;53.212;5.728;2022-09-24T05:18:03;0.20;;;0.20;;
71413;SDS011;59226;53.212;5.728;2022-09-24T05:20:30;0.20;;;0.20;;
71413;SDS011;59226;53.212;5.728;2022-09-24T05:22:56;0.30;;;0.20;;
71413;SDS011;59226;53.212;5.728;2022-09-24T05:25:21;1.87;;;0.57;;
71413;SDS011;59226;53.212;5.728;2022-09-24T05:27:48;0.30;;;0.20;;
71413;SDS011;59226;53.212;5.728;2022-09-24T05:30:14;4.43;;;0.60;;
71413;SDS011;59226;53.212;5.728;2022-09-24T05:32:39;1.23;;;0.40;;
71413;SDS011;59226;53.212;5.728;2022-09-24T05:35:05;0.57;;;0.30;;
71413;SDS011;59226;53.212;5.728;2022-09-24T05:37:32;0.35;;;0.20;;
71413;SDS011;59226;53.212;5.728;2022-09-24T05:39:57;0.17;;;0.17;;
71413;SDS011;59226;53.212;5.728;2022-09-24T05:42:42;0.30;;;0.22;;
71413;SDS011;59226;53.212;5.728;2022-09-24T05:45:07;1.27;;;0.40;;
71413;SDS011;59226;53.212;5.728;2022-09-24T05:47:33;3.53;;;0.73;;
71413;SDS011;59226;53.212;5.728;2022-09-24T05:49:58;0.10;;;0.10;;
71413;SDS011;59226;53.212;5.728;2022-09-24T05:52:23;0.20;;;0.20;;
71413;SDS011;59226;53.212;5.728;2022-09-24T05:54:48;0.33;;;0.30;;
71413;SDS011;59226;53.212;5.728;2022-09-24T05:57:13;0.33;;;0.20;;
71413;SDS011;59226;53.212;5.728;2022-09-24T05:59:39;6.07;;;0.57;;
71413;SDS011;59226;53.212;5.728;2022-09-24T06:02:04;0.87;;;0.33;;
71413;SDS011;59226;53.212;5.728;2022-09-24T06:04:30;1.40;;;0.20;;
71413;SDS011;59226;53.212;5.728;2022-09-24T06:06:55;0.20;;;0.13;;
71413;SDS011;59226;53.212;5.728;2022-09-24T06:09:20;0.87;;;0.60;;
71413;SDS011;59226;53.212;5.728;2022-09-24T06:11:46;1.07;;;0.67;;
71413;SDS011;59226;53.212;5.728;2022-09-24T06:14:13;0.20;;;0.20;;
71413;SDS011;59226;53.212;5.728;2022-09-24T06:16:39;0.63;;;0.30;;
71413;SDS011;59226;53.212;5.728;2022-09-24T06:19:04;0.97;;;0.40;;
71413;SDS011;59226;53.212;5.728;2022-09-24T06:21:29;1.23;;;0.30;;
71413;SDS011;59226;53.212;5.728;2022-09-24T06:23:54;2.70;;;0.33;;
71413;SDS011;59226;53.212;5.728;2022-09-24T06:26:19;1.90;;;0.40;;
71413;SDS011;59226;53.212;5.728;2022-09-24T06:28:45;1.53;;;0.77;;
71413;SDS011;59226;53.212;5.728;2022-09-24T06:31:10;0.40;;;0.37;;
71413;SDS011;59226;53.212;5.728;2022-09-24T06:33:36;0.83;;;0.43;;
71413;SDS011;59226;53.212;5.728;2022-09-24T06:36:02;0.50;;;0.20;;
71413;SDS011;59226;53.212;5.728;2022-09-24T06:38:28;1.60;;;0.40;;
71413;SDS011;59226;53.212;5.728;2022-09-24T06:40:57;2.10;;;0.83;;
71413;SDS011;59226;53.212;5.728;2022-09-24T06:43:22;0.20;;;0.20;;
71413;SDS011;59226;53.212;5.728;2022-09-24T06:45:48;0.20;;;0.13;;
71413;SDS011;59226;53.212;5.728;2022-09-24T06:48:13;1.70;;;0.70;;
71413;SDS011;59226;53.212;5.728;2022-09-24T06:50:39;0.90;;;0.27;;
71413;SDS011;59226;53.212;5.728;2022-09-24T06:53:05;0.55;;;0.35;;
71413;SDS011;59226;53.212;5.728;2022-09-24T06:55:30;2.10;;;0.47;;
71413;SDS011;59226;53.212;5.728;2022-09-24T06:58:09;4.57;;;0.63;;
71413;SDS011;59226;53.212;5.728;2022-09-24T07:00:35;0.28;;;0.20;;
71413;SDS011;59226;53.212;5.728;2022-09-24T07:03:01;3.90;;;0.43;;
71413;SDS011;59226;53.212;5.728;2022-09-24T07:05:26;0.20;;;0.20;;
71413;SDS011;59226;53.212;5.728;2022-09-24T07:07:51;0.30;;;0.30;;
71413;SDS011;59226;53.212;5.728;2022-09-24T07:10:17;0.50;;;0.30;;
71413;SDS011;59226;53.212;5.728;2022-09-24T07:12:42;2.93;;;1.37;;
71413;SDS011;59226;53.212;5.728;2022-09-24T07:15:08;0.53;;;0.40;;
71413;SDS011;59226;53.212;5.728;2022-09-24T07:17:33;0.43;;;0.40;;
71413;SDS011;59226;53.212;5.728;2022-09-24T07:19:58;0.47;;;0.40;;
71413;SDS011;59226;53.212;5.728;2022-09-24T07:22:24;0.20;;;0.20;;
71413;SDS011;59226;53.212;5.728;2022-09-24T07:24:49;0.20;;;0.10;;
71413;SDS011;59226;53.212;5.728;2022-09-24T07:27:14;0.20;;;0.10;;
71413;SDS011;59226;53.212;5.728;2022-09-24T07:29:40;0.20;;;0.20;;
71413;SDS011;59226;53.212;5.728;2022-09-24T07:32:05;0.20;;;0.20;;
71413;SDS011;59226;53.212;5.728;2022-09-24T07:34:30;0.40;;;0.30;;
71413;SDS011;59226;53.212;5.728;2022-09-24T07:36:55;0.20;;;0.10;;
71413;SDS011;59226;53.212;5.728;2022-09-24T07:39:24;0.77;;;0.60;;
71413;SDS011;59226;53.212;5.728;2022-09-24T07:41:49;0.22;;;0.13;;
71413;SDS011;59226;53.212;5.728;2022-09-24T07:44:16;0.47;;;0.40;;
71413;SDS011;59226;53.212;5.728;2022-09-24T07:46:44;0.17;;;0.17;;
71413;SDS011;59226;53.212;5.728;2022-09-24T07:49:10;1.30;;;0.38;;
71413;SDS011;59226;53.212;5.728;2022-09-24T07:51:35;3.33;;;0.80;;
71413;SDS011;59226;53.212;5.728;2022-09-24T07:54:00;0.10;;;0.10;;
71413;SDS011;59226;53.212;5.728;2022-09-24T07:56:26;0.70;;;0.30;;
71413;SDS011;59226;53.212;5.728;2022-09-24T07:58:51;1.70;;;0.20;;
71413;SDS011;59226;53.212;5.728;2022-09-24T08:01:17;4.00;;;0.30;;
71413;SDS011;59226;53.212;5.728;2022-09-24T08:03:43;2.05;;;0.40;;
71413;SDS011;59226;53.212;5.728;2022-09-24T08:06:08;0.70;;;0.50;;
71413;SDS011;59226;53.212;5.728;2022-09-24T08:08:34;0.88;;;0.30;;
71413;SDS011;59226;53.212;5.728;2022-09-24T08:11:05;0.13;;;0.13;;
71413;SDS011;59226;53.212;5.728;2022-09-24T08:13:31;0.13;;;0.13;;
71413;SDS011;59226;53.212;5.728;2022-09-24T08:15:58;1.00;;;0.52;;
71413;SDS011;59226;53.212;5.728;2022-09-24T08:18:23;0.30;;;0.20;;
71413;SDS011;59226;53.212;5.728;2022-09-24T08:20:48;0.17;;;0.10;;
71413;SDS011;59226;53.212;5.728;2022-09-24T08:23:14;0.20;;;0.20;;
71413;SDS011;59226;53.212;5.728;2022-09-24T08:25:40;0.40;;;0.30;;
71413;SDS011;59226;53.212;5.728;2022-09-24T08:28:06;0.40;;;0.20;;
71413;SDS011;59226;53.212;5.728;2022-09-24T08:30:31;0.85;;;0.30;;
71413;SDS011;59226;53.212;5.728;2022-09-24T08:32:57;0.22;;;0.15;;
71413;SDS011;59226;53.212;5.728;2022-09-24T08:35:23;1.10;;;0.40;;
71413;SDS011;59226;53.212;5.728;2022-09-24T08:37:48;0.60;;;0.30;;
71413;SDS011;59226;53.212;5.728;2022-09-24T08:40:15;0.20;;;0.20;;
71413;SDS011;59226;53.212;5.728;2022-09-24T08:42:45;2.28;;;0.93;;
71413;SDS011;59226;53.212;5.728;2022-09-24T08:45:14;1.67;;;0.38;;
71413;SDS011;59226;53.212;5.728;2022-09-24T08:48:09;0.40;;;0.30;;
71413;SDS011;59226;53.212;5.728;2022-09-24T08:50:37;0.63;;;0.30;;
71413;SDS011;59226;53.212;5.728;2022-09-24T08:56:11;1.42;;;0.22;;
71413;SDS011;59226;53.212;5.728;2022-09-24T09:04:23;0.68;;;0.30;;
71413;SDS011;59226;53.212;5.728;2022-09-24T09:09:25;0.47;;;0.37;;
71413;SDS011;59226;53.212;5.728;2022-09-24T09:11:59;0.20;;;0.20;;
71413;SDS011;59226;53.212;5.728;2022-09-24T09:14:40;4.32;;;1.08;;
71413;SDS011;59226;53.212;5.728;2022-09-24T09:17:13;0.30;;;0.25;;
71413;SDS011;59226;53.212;5.728;2022-09-24T09:19:41;0.43;;;0.28;;
71413;SDS011;59226;53.212;5.728;2022-09-24T09:22:12;0.83;;;0.30;;
71413;SDS011;59226;53.212;5.728;2022-09-24T09:24:47;5.28;;;0.60;;
71413;SDS011;59226;53.212;5.728;2022-09-24T09:27:13;1.88;;;0.80;;
71413;SDS011;59226;53.212;5.728;2022-09-24T09:29:43;0.35;;;0.35;;
71413;SDS011;59226;53.212;5.728;2022-09-24T09:42:59;2.78;;;0.63;;
71413;SDS011;59226;53.212;5.728;2022-09-24T09:45:32;0.10;;;0.10;;
71413;SDS011;59226;53.212;5.728;2022-09-24T09:47:58;0.60;;;0.57;;
71413;SDS011;59226;53.212;5.728;2022-09-24T09:52:52;0.20;;;0.13;;
71413;SDS011;59226;53.212;5.728;2022-09-24T09:57:46;2.03;;;0.40;;
71413;SDS011;59226;53.212;5.728;2022-09-24T10:00:25;0.20;;;0.10;;
71413;SDS011;59226;53.212;5.728;2022-09-24T10:02:51;0.30;;;0.20;;
71413;SDS011;59226;53.212;5.728;2022-09-24T10:05:19;0.60;;;0.30;;
71413;SDS011;59226;53.212;5.728;2022-09-24T10:07:45;3.60;;;0.43;;
71413;SDS011;59226;53.212;5.728;2022-09-24T10:10:18;0.50;;;0.30;;
71413;SDS011;59226;53.212;5.728;2022-09-24T10:12:43;0.20;;;0.15;;
71413;SDS011;59226;53.212;5.728;2022-09-24T10:15:16;0.37;;;0.30;;
71413;SDS011;59226;53.212;5.728;2022-09-24T10:17:42;0.50;;;0.30;;
71413;SDS011;59226;53.212;5.728;2022-09-24T10:20:14;0.20;;;0.10;;
71413;SDS011;59226;53.212;5.728;2022-09-24T10:22:43;0.20;;;0.20;;
71413;SDS011;59226;53.212;5.728;2022-09-24T10:25:20;0.63;;;0.40;;
71413;SDS011;59226;53.212;5.728;2022-09-24T10:27:48;0.22;;;0.20;;
71413;SDS011;59226;53.212;5.728;2022-09-24T10:30:14;0.20;;;0.10;;
71413;SDS011;59226;53.212;5.728;2022-09-24T10:33:00;1.13;;;0.40;;
71413;SDS011;59226;53.212;5.728;2022-09-24T10:35:30;0.47;;;0.20;;
71413;SDS011;59226;53.212;5.728;2022-09-24T10:37:57;0.20;;;0.20;;
71413;SDS011;59226;53.212;5.728;2022-09-24T10:40:24;0.30;;;0.20;;
71413;SDS011;59226;53.212;5.728;2022-09-24T10:42:59;0.80;;;0.57;;
71413;SDS011;59226;53.212;5.728;2022-09-24T10:45:29;0.47;;;0.20;;
71413;SDS011;59226;53.212;5.728;2022-09-24T10:48:08;0.43;;;0.40;;
71413;SDS011;59226;53.212;5.728;2022-09-24T10:53:06;0.20;;;0.10;;
71413;SDS011;59226;53.212;5.728;2022-09-24T11:00:39;0.43;;;0.22;;
71413;SDS011;59226;53.212;5.728;2022-09-24T11:05:41;0.73;;;0.50;;
71413;SDS011;59226;53.212;5.728;2022-09-24T11:13:22;0.40;;;0.10;;
71413;SDS011;59226;53.212;5.728;2022-09-24T11:18:26;3.42;;;0.43;;
71413;SDS011;59226;53.212;5.728;2022-09-24T11:31:24;5.07;;;0.73;;
71413;SDS011;59226;53.212;5.728;2022-09-24T11:34:13;0.60;;;0.30;;
71413;SDS011;59226;53.212;5.728;2022-09-24T11:41:51;0.20;;;0.20;;
71413;SDS011;59226;53.212;5.728;2022-09-24T11:44:42;0.20;;;0.13;;
71413;SDS011;59226;53.212;5.728;2022-09-24T11:55:09;0.20;;;0.20;;
71413;SDS011;59226;53.212;5.728;2022-09-24T12:02:48;0.30;;;0.30;;
71413;SDS011;59226;53.212;5.728;2022-09-24T12:07:48;0.20;;;0.10;;
71413;SDS011;59226;53.212;5.728;2022-09-24T12:10:34;0.20;;;0.20;;
71413;SDS011;59226;53.212;5.728;2022-09-24T12:15:48;0.20;;;0.20;;
71413;SDS011;59226;53.212;5.728;2022-09-24T12:18:16;0.20;;;0.20;;
71413;SDS011;59226;53.212;5.728;2022-09-24T12:20:47;0.68;;;0.22;;
71413;SDS011;59226;53.212;5.728;2022-09-24T12:23:14;0.32;;;0.30;;
71413;SDS011;59226;53.212;5.728;2022-09-24T12:25:45;0.50;;;0.20;;
71413;SDS011;59226;53.212;5.728;2022-09-24T12:28:12;2.15;;;0.80;;
71413;SDS011;59226;53.212;5.728;2022-09-24T12:30:39;3.73;;;1.07;;
71413;SDS011;59226;53.212;5.728;2022-09-24T12:33:26;0.40;;;0.32;;
71413;SDS011;59226;53.212;5.728;2022-09-24T12:38:35;0.30;;;0.20;;
71413;SDS011;59226;53.212;5.728;2022-09-24T12:46:21;0.32;;;0.20;;
71413;SDS011;59226;53.212;5.728;2022-09-24T12:48:47;0.35;;;0.20;;
71413;SDS011;59226;53.212;5.728;2022-09-24T12:51:12;0.20;;;0.10;;
71413;SDS011;59226;53.212;5.728;2022-09-24T12:53:42;3.70;;;0.40;;
71413;SDS011;59226;53.212;5.728;2022-09-24T12:56:08;0.30;;;0.20;;
71413;SDS011;59226;53.212;5.728;2022-09-24T12:58:41;0.30;;;0.20;;
71413;SDS011;59226;53.212;5.728;2022-09-24T13:01:10;0.20;;;0.17;;
71413;SDS011;59226;53.212;5.728;2022-09-24T13:03:37;0.30;;;0.20;;
71413;SDS011;59226;53.212;5.728;2022-09-24T13:08:47;0.40;;;0.30;;
71413;SDS011;59226;53.212;5.728;2022-09-24T13:11:29;0.20;;;0.10;;
71413;SDS011;59226;53.212;5.728;2022-09-24T13:13:58;0.70;;;0.70;;
71413;SDS011;59226;53.212;5.728;2022-09-24T13:16:24;0.95;;;0.47;;
71413;SDS011;59226;53.212;5.728;2022-09-24T13:18:50;0.20;;;0.20;;
71413;SDS011;59226;53.212;5.728;2022-09-24T13:21:23;1.95;;;0.40;;
71413;SDS011;59226;53.212;5.728;2022-09-24T13:23:49;4.13;;;0.82;;
71413;SDS011;59226;53.212;5.728;2022-09-24T13:28:50;0.20;;;0.20;;
71413;SDS011;59226;53.212;5.728;2022-09-24T13:36:46;1.25;;;0.30;;
71413;SDS011;59226;53.212;5.728;2022-09-24T13:39:32;0.50;;;0.30;;
71413;SDS011;59226;53.212;5.728;2022-09-24T13:44:29;0.97;;;0.40;;
71413;SDS011;59226;53.212;5.728;2022-09-24T13:47:39;1.67;;;0.30;;
71413;SDS011;59226;53.212;5.728;2022-09-24T13:49:44;1.00;;;0.55;;
71413;SDS011;59226;53.212;5.728;2022-09-24T13:52:16;0.40;;;0.30;;
71413;SDS011;59226;53.212;5.728;2022-09-24T13:54:50;0.40;;;0.30;;
71413;SDS011;59226;53.212;5.728;2022-09-24T13:57:26;2.13;;;0.38;;
71413;SDS011;59226;53.212;5.728;2022-09-24T14:02:50;0.30;;;0.28;;
71413;SDS011;59226;53.212;5.728;2022-09-24T14:05:16;2.33;;;0.73;;
71413;SDS011;59226;53.212;5.728;2022-09-24T14:07:50;0.45;;;0.28;;
71413;SDS011;59226;53.212;5.728;2022-09-24T14:10:15;0.30;;;0.20;;
71413;SDS011;59226;53.212;5.728;2022-09-24T14:12:41;1.93;;;0.20;;
71413;SDS011;59226;53.212;5.728;2022-09-24T14:15:09;0.90;;;0.70;;
71413;SDS011;59226;53.212;5.728;2022-09-24T14:17:38;0.20;;;0.20;;
71413;SDS011;59226;53.212;5.728;2022-09-24T14:20:03;1.07;;;0.97;;
71413;SDS011;59226;53.212;5.728;2022-09-24T14:22:29;0.30;;;0.30;;
71413;SDS011;59226;53.212;5.728;2022-09-24T14:24:59;0.30;;;0.20;;
71413;SDS011;59226;53.212;5.728;2022-09-24T14:27:25;0.38;;;0.28;;
71413;SDS011;59226;53.212;5.728;2022-09-24T14:30:34;0.95;;;0.40;;
71413;SDS011;59226;53.212;5.728;2022-09-24T14:32:40;0.83;;;0.37;;
71413;SDS011;59226;53.212;5.728;2022-09-24T14:37:36;1.40;;;0.40;;
71413;SDS011;59226;53.212;5.728;2022-09-24T14:40:12;4.30;;;0.68;;
71413;SDS011;59226;53.212;5.728;2022-09-24T14:42:42;5.72;;;0.85;;
71413;SDS011;59226;53.212;5.728;2022-09-24T14:45:09;2.13;;;0.37;;
71413;SDS011;59226;53.212;5.728;2022-09-24T14:47:41;0.28;;;0.20;;
71413;SDS011;59226;53.212;5.728;2022-09-24T14:55:42;0.30;;;0.20;;
71413;SDS011;59226;53.212;5.728;2022-09-24T14:58:22;6.93;;;0.47;;
71413;SDS011;59226;53.212;5.728;2022-09-24T15:00:48;0.73;;;0.33;;
71413;SDS011;59226;53.212;5.728;2022-09-24T15:03:14;0.40;;;0.30;;
71413;SDS011;59226;53.212;5.728;2022-09-24T15:05:40;0.52;;;0.30;;
71413;SDS011;59226;53.212;5.728;2022-09-24T15:10:32;0.20;;;0.20;;
71413;SDS011;59226;53.212;5.728;2022-09-24T15:12:57;1.43;;;0.50;;
71413;SDS011;59226;53.212;5.728;2022-09-24T15:15:27;0.20;;;0.20;;
71413;SDS011;59226;53.212;5.728;2022-09-24T15:17:52;3.60;;;0.52;;
71413;SDS011;59226;53.212;5.728;2022-09-24T15:20:18;0.87;;;0.33;;
71413;SDS011;59226;53.212;5.728;2022-09-24T15:22:43;5.30;;;0.60;;
71413;SDS011;59226;53.212;5.728;2022-09-24T15:25:11;3.60;;;0.68;;
71413;SDS011;59226;53.212;5.728;2022-09-24T15:27:38;0.20;;;0.20;;
71413;SDS011;59226;53.212;5.728;2022-09-24T15:30:04;0.73;;;0.40;;
71413;SDS011;59226;53.212;5.728;2022-09-24T15:32:32;0.30;;;0.20;;
71413;SDS011;59226;53.212;5.728;2022-09-24T15:35:00;1.00;;;0.50;;
71413;SDS011;59226;53.212;5.728;2022-09-24T15:37:27;0.30;;;0.30;;
71413;SDS011;59226;53.212;5.728;2022-09-24T15:39:56;0.20;;;0.20;;
71413;SDS011;59226;53.212;5.728;2022-09-24T15:42:22;2.30;;;0.75;;
71413;SDS011;59226;53.212;5.728;2022-09-24T15:44:47;0.47;;;0.45;;
71413;SDS011;59226;53.212;5.728;2022-09-24T15:47:14;0.25;;;0.20;;
71413;SDS011;59226;53.212;5.728;2022-09-24T15:49:40;1.13;;;0.30;;
71413;SDS011;59226;53.212;5.728;2022-09-24T15:52:06;0.70;;;0.67;;
71413;SDS011;59226;53.212;5.728;2022-09-24T15:54:31;0.20;;;0.20;;
71413;SDS011;59226;53.212;5.728;2022-09-24T15:56:57;0.57;;;0.23;;
71413;SDS011;59226;53.212;5.728;2022-09-24T15:59:22;0.20;;;0.20;;
71413;SDS011;59226;53.212;5.728;2022-09-24T16:01:48;1.08;;;0.65;;
71413;SDS011;59226;53.212;5.728;2022-09-24T16:04:14;0.30;;;0.20;;
71413;SDS011;59226;53.212;5.728;2022-09-24T16:06:41;0.60;;;0.50;;
71413;SDS011;59226;53.212;5.728;2022-09-24T16:09:07;3.00;;;0.35;;
71413;SDS011;59226;53.212;5.728;2022-09-24T16:11:32;1.10;;;0.40;;
71413;SDS011;59226;53.212;5.728;2022-09-24T16:13:57;0.47;;;0.33;;
71413;SDS011;59226;53.212;5.728;2022-09-24T16:16:23;2.00;;;0.40;;
71413;SDS011;59226;53.212;5.728;2022-09-24T16:18:48;0.47;;;0.33;;
71413;SDS011;59226;53.212;5.728;2022-09-24T16:21:13;3.53;;;0.97;;
71413;SDS011;59226;53.212;5.728;2022-09-24T16:23:38;0.30;;;0.30;;
71413;SDS011;59226;53.212;5.728;2022-09-24T16:26:04;1.60;;;0.77;;
71413;SDS011;59226;53.212;5.728;2022-09-24T16:28:29;0.40;;;0.30;;
71413;SDS011;59226;53.212;5.728;2022-09-24T16:30:54;1.30;;;0.40;;
71413;SDS011;59226;53.212;5.728;2022-09-24T16:33:20;0.20;;;0.20;;
71413;SDS011;59226;53.212;5.728;2022-09-24T16:35:45;0.77;;;0.40;;
71413;SDS011;59226;53.212;5.728;2022-09-24T16:38:10;0.60;;;0.30;;
71413;SDS011;59226;53.212;5.728;2022-09-24T16:40:36;3.50;;;0.83;;
71413;SDS011;59226;53.212;5.728;2022-09-24T16:43:01;0.27;;;0.27;;
71413;SDS011;59226;53.212;5.728;2022-09-24T16:45:26;0.33;;;0.20;;
71413;SDS011;59226;53.212;5.728;2022-09-24T16:47:52;0.20;;;0.20;;
71413;SDS011;59226;53.212;5.728;2022-09-24T16:50:17;0.20;;;0.20;;
71413;SDS011;59226;53.212;5.728;2022-09-24T16:52:44;0.65;;;0.38;;
71413;SDS011;59226;53.212;5.728;2022-09-24T16:55:09;1.20;;;0.60;;
71413;SDS011;59226;53.212;5.728;2022-09-24T16:57:35;3.75;;;0.70;;
71413;SDS011;59226;53.212;5.728;2022-09-24T17:00:02;0.20;;;0.20;;
71413;SDS011;59226;53.212;5.728;2022-09-24T17:02:29;0.20;;;0.10;;